Terminal Aerodrome Forecast
Issued by NWS

Home | Current Version | Previous Version | Text Only | Print | Product List | Glossary On
Versions: 1 2 3 4 5 6 7 8 9 10 11 12 13 14 15 16 17 18 19
513
FTUS44 KLZK 220526
TAFHOT
TAF
KHOT 220526Z 2206/2306 13005KT P6SM SCT025 OVC060
     FM221000 23005KT 6SM BR VCTS SCT035CB OVC060
      TEMPO 2210/2214 4SM -TSRA BR BKN020CB OVC040
     FM221400 23008KT P6SM VCTS BKN035CB OVC060=

USA.gov is the U.S. government's official web portal to all federal, state and local government web resources and services.